Mont-Saint-Guibert, Belgium
Current Conditions -  °F | °C
As of 9:25 AM on Monday 22 Dec 2014 (Local Time) from EBBE Reporting Station
Overcast Overcast  
Wind Chill: 38°   Ceiling: 1000
Heat Index: 46°   Visibility: 6mi
Dew Point: 43°   Wind: 25mph
Humidity: 87%   Direction: 230°SW
Pressure: 30.18"   Gusts: NA
Location:  50.63°N, 4.61°E
Report Text: EBBE 220825Z 23022KT 9999 BKN010 OVC012 08/06 Q1022 GRN GRN
Loading
Personal Weather Stations






























Interactive Weather Map New forecast layout! Learn more

10-Day Weather Forecast

Advertisements
Track Severe Weather on mobile